Terminal Aerodrome Forecast
Issued by NWS Norman, OK

Home | Current Version | Previous Version | Text Only | Print | Product List | Glossary On
Versions: 1 2 3 4 5 6 7 8 9 10 11 12 13
000
FTUS44 KOUN 261134
TAFSPS
TAF
KSPS 261134Z 2612/2712 36016G24KT P6SM SCT120
      TEMPO 2612/2616 -RA BKN020
     FM270000 32011KT P6SM SKC
     FM270400 18005KT P6SM SKC=

USA.gov is the U.S. government's official web portal to all federal, state and local government web resources and services.